Time;durP1;ratioP1;P1;durP2;ratioP2;P2;SDS_P1;SDS_P2;PMS_P1;PMS_P2;Temp;Humidity;BMP_temperature;BMP_pressure;BME280_temperature;BME280_humidity;BME280_pressure;Samples;Min_cycle;Max_cycle;Signal;HPM_P1;HPM_P2
2021/01/11 00:01:17;;;;;;;;;;;;;;;25.17;34.83;101355.88;5052433;28;1367;-46
2021/01/11 00:03:42;;;;;;;;;;;;;;;25.24;34.45;101355.09;5055199;28;1102;-50
2021/01/11 00:06:07;;;;;;;;;;;;;;;25.23;34.34;101359.59;5062007;28;1160;-49
2021/01/11 00:08:32;;;;;;;;;;;;;;;25.16;34.30;101356.91;5060467;28;1296;-48
2021/01/11 00:10:58;;;;;;;;;;;;;;;25.18;34.89;101356.72;5060960;28;1143;-50
2021/01/11 00:13:23;;;;;;;;;;;;;;;25.15;34.26;101360.63;5058408;28;1169;-47
2021/01/11 00:15:48;;;;;;;;;;;;;;;25.22;34.20;101357.16;5055679;28;1011;-46
2021/01/11 00:18:13;;;;;;;;;;;;;;;25.24;34.67;101355.88;5059291;28;1883;-50
2021/01/11 00:20:38;;;;;;;;;;;;;;;25.26;34.81;101356.50;5060682;28;1141;-50
2021/01/11 00:23:03;;;;;;;;;;;;;;;25.29;34.49;101356.09;5062339;28;1117;-47
2021/01/11 00:25:29;;;;;;;;;;;;;;;25.33;34.12;101358.38;5059118;28;1066;-45
2021/01/11 00:27:54;;;;;;;;;;;;;;;25.31;34.50;101362.09;5060831;28;1256;-47
2021/01/11 00:30:19;;;;;;;;;;;;;;;25.31;36.00;101363.97;5059025;28;1204;-46
2021/01/11 00:32:44;;;;;;;;;;;;;;;25.30;34.19;101354.25;5045265;28;1434;-46
2021/01/11 00:35:10;;;;;;;;;;;;;;;25.26;34.03;101358.38;5040568;28;1329;-48
2021/01/11 00:37:35;;;;;;;;;;;;;;;25.20;34.26;101354.66;5041868;28;1963;-48
2021/01/11 00:40:00;;;;;;;;;;;;;;;25.19;34.10;101352.19;5039098;28;1361;-47
2021/01/11 00:42:25;;;;;;;;;;;;;;;25.16;34.30;101354.22;5042653;28;1175;-48
2021/01/11 00:44:50;;;;;;;;;;;;;;;25.08;34.26;101341.00;5040134;28;1380;-48
2021/01/11 00:47:16;;;;;;;;;;;;;;;25.02;34.26;101336.47;5042549;28;1523;-47
2021/01/11 00:49:41;;;;;;;;;;;;;;;24.98;34.12;101337.91;5040162;28;1428;-48
2021/01/11 00:52:07;;;;;;;;;;;;;;;24.94;34.34;101348.22;5048113;28;1085;-51
2021/01/11 00:54:32;;;;;;;;;;;;;;;24.88;34.59;101335.63;5051812;28;1347;-47
2021/01/11 00:56:57;;;;;;;;;;;;;;;24.84;34.34;101335.19;5046263;28;1957;-49
2021/01/11 00:59:22;;;;;;;;;;;;;;;24.82;34.20;101329.22;5048244;28;1628;-47
2021/01/11 01:01:51;;;;;;;;;;;;;;;24.83;34.43;101332.72;5063208;28;1423;-48
2021/01/11 01:04:17;;;;;;;;;;;;;;;24.77;34.40;101329.00;5067511;28;1058;-48
2021/01/11 01:06:42;;;;;;;;;;;;;;;24.75;34.27;101339.09;5079617;28;1041;-53
2021/01/11 01:09:07;;;;;;;;;;;;;;;24.72;34.45;101336.78;5061673;28;1513;-49
2021/01/11 01:11:35;;;;;;;;;;;;;;;24.70;34.48;101344.22;5063237;28;1105;-47
2021/01/11 01:14:00;;;;;;;;;;;;;;;24.68;34.62;101346.25;5051368;28;1530;-47
2021/01/11 01:16:26;;;;;;;;;;;;;;;24.67;34.32;101349.97;5054247;28;1902;-47
2021/01/11 01:18:52;;;;;;;;;;;;;;;24.64;34.62;101355.75;5050094;28;1426;-46
2021/01/11 01:21:17;;;;;;;;;;;;;;;24.61;34.41;101356.13;5051623;28;987;-47
2021/01/11 01:23:42;;;;;;;;;;;;;;;24.61;34.53;101356.13;5053976;28;1093;-48
2021/01/11 01:26:07;;;;;;;;;;;;;;;24.59;34.50;101356.34;5054321;28;1014;-47
2021/01/11 01:28:32;;;;;;;;;;;;;;;24.56;34.19;101360.25;5055337;28;1339;-48
2021/01/11 01:30:58;;;;;;;;;;;;;;;24.55;34.42;101363.97;5053928;28;1030;-48
2021/01/11 01:33:23;;;;;;;;;;;;;;;24.54;34.33;101359.63;5063966;28;1148;-48
2021/01/11 01:35:48;;;;;;;;;;;;;;;24.53;34.58;101363.34;5065923;28;1097;-48
2021/01/11 01:38:13;;;;;;;;;;;;;;;24.52;34.49;101369.72;5064996;28;1955;-46
2021/01/11 01:40:38;;;;;;;;;;;;;;;24.52;34.31;101379.63;5065460;28;931;-47
2021/01/11 01:43:03;;;;;;;;;;;;;;;24.51;34.77;101384.16;5065757;28;1097;-46
2021/01/11 01:45:29;;;;;;;;;;;;;;;24.49;34.45;101391.56;5063246;28;1140;-47
2021/01/11 01:47:54;;;;;;;;;;;;;;;24.47;34.51;101385.56;5064942;28;1272;-47
2021/01/11 01:50:19;;;;;;;;;;;;;;;24.45;34.77;101387.63;5064355;28;1034;-47
2021/01/11 01:52:44;;;;;;;;;;;;;;;24.46;34.53;101386.59;5065463;28;1084;-49
2021/01/11 01:55:10;;;;;;;;;;;;;;;24.42;34.67;101390.72;5065493;28;1122;-47
2021/01/11 01:57:36;;;;;;;;;;;;;;;24.40;34.50;101384.72;5064326;28;1964;-46
2021/01/11 02:00:02;;;;;;;;;;;;;;;24.42;34.57;101396.91;5065031;28;970;-47
2021/01/11 02:02:27;;;;;;;;;;;;;;;24.39;34.60;101397.31;5048952;28;1601;-49
2021/01/11 02:04:53;;;;;;;;;;;;;;;24.37;34.72;101393.16;5053494;28;1117;-50
2021/01/11 02:07:31;;;;;;;;;;;;;;;24.37;34.83;101398.50;5066669;28;1389;-50
2021/01/11 02:10:08;;;;;;;;;;;;;;;24.37;34.47;101393.16;5061632;28;1146;-47
2021/01/11 02:12:52;;;;;;;;;;;;;;;24.35;34.47;101400.56;5068135;28;1038;-47
2021/01/11 02:15:22;;;;;;;;;;;;;;;24.34;34.70;101393.56;5058372;28;1093;-46
2021/01/11 02:17:56;;;;;;;;;;;;;;;24.33;34.73;101391.91;5067315;28;1893;-47
2021/01/11 02:20:27;;;;;;;;;;;;;;;24.32;34.85;101392.94;5041068;28;1643;-47
2021/01/11 02:23:11;;;;;;;;;;;;;;;24.31;34.62;101383.22;5067407;28;1047;-49
2021/01/11 02:25:40;;;;;;;;;;;;;;;24.30;34.54;101385.09;5063869;28;1109;-47
2021/01/11 02:28:38;;;;;;;;;;;;;;;24.27;34.52;101383.63;5056786;28;1354;-48
2021/01/11 02:31:04;;;;;;;;;;;;;;;24.27;34.66;101386.31;5000035;28;1429;-48
2021/01/11 02:33:30;;;;;;;;;;;;;;;24.28;34.65;101390.66;5063458;28;1089;-47
2021/01/11 02:36:05;;;;;;;;;;;;;;;24.27;34.65;101383.63;5064206;28;1038;-48
2021/01/11 02:38:31;;;;;;;;;;;;;;;24.27;34.59;101380.94;5063319;28;1878;-47
2021/01/11 02:40:57;;;;;;;;;;;;;;;24.27;34.49;101380.13;5064547;28;1073;-49
2021/01/11 02:43:22;;;;;;;;;;;;;;;24.25;34.92;101385.69;5063158;28;1046;-48
2021/01/11 02:45:47;;;;;;;;;;;;;;;24.25;34.73;101379.50;5062805;28;1022;-47
2021/01/11 02:48:12;;;;;;;;;;;;;;;24.25;35.07;101371.47;5064008;28;1375;-51
2021/01/11 02:50:56;;;;;;;;;;;;;;;24.24;34.92;101369.81;5063293;28;1054;-51
2021/01/11 02:53:32;;;;;;;;;;;;;;;24.22;34.94;101370.00;5062775;28;1081;-47
2021/01/11 02:56:00;;;;;;;;;;;;;;;24.21;34.83;101363.00;5045063;28;1599;-48
2021/01/11 02:58:40;;;;;;;;;;;;;;;24.20;34.79;101361.34;5051808;28;1902;-47
2021/01/11 03:01:07;;;;;;;;;;;;;;;24.19;34.92;101346.28;5047652;28;991;-46
2021/01/11 03:03:34;;;;;;;;;;;;;;;24.18;35.02;101335.78;5053521;28;1272;-47
2021/01/11 03:05:59;;;;;;;;;;;;;;;24.19;35.20;101348.16;5060659;28;1301;-48
2021/01/11 03:08:24;;;;;;;;;;;;;;;24.17;35.04;101348.34;5056192;28;1228;-47
2021/01/11 03:10:51;;;;;;;;;;;;;;;24.17;34.76;101348.34;5064223;28;1014;-48
2021/01/11 03:13:16;;;;;;;;;;;;;;;24.16;35.24;101346.69;5061822;28;1100;-47
2021/01/11 03:15:41;;;;;;;;;;;;;;;24.15;34.96;101339.66;5063584;28;1017;-50
2021/01/11 03:18:06;;;;;;;;;;;;;;;24.14;34.64;101341.53;5063426;28;1901;-49
2021/01/11 03:20:32;;;;;;;;;;;;;;;24.16;35.12;101340.50;5058434;28;1646;-50
2021/01/11 03:22:57;;;;;;;;;;;;;;;24.13;34.80;101339.88;5059868;28;1176;-47
2021/01/11 03:25:22;;;;;;;;;;;;;;;24.14;34.85;101338.03;5041740;28;1387;-49
2021/01/11 03:27:47;;;;;;;;;;;;;;;24.13;34.86;101336.38;5060103;28;1402;-46
2021/01/11 03:30:12;;;;;;;;;;;;;;;24.12;34.87;101332.03;5062927;28;1141;-48
2021/01/11 03:32:38;;;;;;;;;;;;;;;24.11;34.86;101330.38;5061888;28;1081;-47
2021/01/11 03:35:03;;;;;;;;;;;;;;;24.11;34.87;101336.59;5063700;28;1045;-48
2021/01/11 03:37:28;;;;;;;;;;;;;;;24.10;34.60;101334.09;5062110;28;1955;-47
2021/01/11 03:39:53;;;;;;;;;;;;;;;24.09;34.85;101333.28;5063942;28;1088;-49
2021/01/11 03:42:19;;;;;;;;;;;;;;;24.08;34.97;101338.81;5063604;28;1088;-47
2021/01/11 03:44:44;;;;;;;;;;;;;;;24.05;34.89;101332.00;5062656;28;1165;-47
2021/01/11 03:47:09;;;;;;;;;;;;;;;24.04;34.57;101329.53;5064083;28;1274;-46
2021/01/11 03:49:35;;;;;;;;;;;;;;;24.04;34.88;101330.34;5063198;28;1054;-47
2021/01/11 03:52:01;;;;;;;;;;;;;;;24.02;34.71;101334.25;5045447;28;1089;-49
2021/01/11 03:54:27;;;;;;;;;;;;;;;24.02;34.58;101331.56;5062790;28;1058;-49
2021/01/11 03:56:52;;;;;;;;;;;;;;;24.00;34.85;101337.94;5063463;28;1960;-47
2021/01/11 03:59:17;;;;;;;;;;;;;;;24.00;34.71;101340.63;5055891;28;1527;-47
2021/01/11 04:01:42;;;;;;;;;;;;;;;23.99;34.86;101340.81;5064039;28;1176;-47
2021/01/11 04:04:07;;;;;;;;;;;;;;;23.99;34.61;101343.50;5064346;28;1078;-48
2021/01/11 04:06:32;;;;;;;;;;;;;;;23.98;34.66;101350.69;5045178;28;1101;-48
2021/01/11 04:08:58;;;;;;;;;;;;;;;23.97;34.63;101342.84;5045689;28;1199;-47
2021/01/11 04:11:24;;;;;;;;;;;;;;;23.96;34.41;101335.84;5062621;28;1009;-50
2021/01/11 04:13:49;;;;;;;;;;;;;;;23.95;34.38;101342.22;5062169;28;1096;-47
2021/01/11 04:16:17;;;;;;;;;;;;;;;23.94;34.62;101345.94;5064065;28;1355;-45
2021/01/11 04:18:43;;;;;;;;;;;;;;;23.92;35.00;101346.13;5061661;28;1906;-47
2021/01/11 04:21:14;;;;;;;;;;;;;;;23.92;34.76;101348.78;5063686;28;1037;-48
2021/01/11 04:23:39;;;;;;;;;;;;;;;23.92;34.59;101351.47;5063516;28;1141;-50
2021/01/11 04:26:06;;;;;;;;;;;;;;;23.93;34.84;101353.13;5063842;28;1038;-48
2021/01/11 04:28:31;;;;;;;;;;;;;;;23.92;34.80;101348.78;5060607;28;1331;-47
2021/01/11 04:30:56;;;;;;;;;;;;;;;23.90;34.59;101350.84;5065002;28;1019;-48
2021/01/11 04:33:21;;;;;;;;;;;;;;;23.90;34.81;101347.34;5062959;28;1057;-47
2021/01/11 04:35:47;;;;;;;;;;;;;;;23.89;34.40;101345.69;5064393;28;1189;-47
2021/01/11 04:38:12;;;;;;;;;;;;;;;23.88;34.78;101338.69;5063507;28;1957;-47
2021/01/11 04:40:37;;;;;;;;;;;;;;;23.86;34.60;101336.19;5060291;28;1058;-49
2021/01/11 04:43:02;;;;;;;;;;;;;;;23.87;34.59;101342.38;5064331;28;1022;-47
2021/01/11 04:45:27;;;;;;;;;;;;;;;23.85;34.51;101342.56;5065130;28;1017;-48
2021/01/11 04:47:54;;;;;;;;;;;;;;;23.87;34.47;101339.72;5068021;28;1365;-47
2021/01/11 04:50:19;;;;;;;;;;;;;;;23.85;34.76;101342.56;5066442;28;1050;-47
2021/01/11 04:52:45;;;;;;;;;;;;;;;23.85;34.44;101337.22;5067921;28;1184;-47
2021/01/11 04:55:11;;;;;;;;;;;;;;;23.83;34.85;101337.38;5067297;28;1112;-48
2021/01/11 04:57:42;;;;;;;;;;;;;;;23.82;34.35;101332.25;5063129;28;1883;-48
2021/01/11 05:00:08;;;;;;;;;;;;;;;23.82;34.67;101340.28;5069399;28;1046;-47
2021/01/11 05:02:42;;;;;;;;;;;;;;;23.82;34.58;101337.59;5064226;28;1078;-48
2021/01/11 05:05:07;;;;;;;;;;;;;;;23.81;34.82;101339.44;5069540;28;1121;-47
2021/01/11 05:07:32;;;;;;;;;;;;;;;23.83;34.86;101339.25;5048262;28;2300;-51
2021/01/11 05:09:57;;;;;;;;;;;;;;;23.82;34.71;101338.41;5054533;28;1251;-47
2021/01/11 05:12:23;;;;;;;;;;;;;;;23.80;34.54;101337.78;5055594;28;1105;-50
2021/01/11 05:14:48;;;;;;;;;;;;;;;23.80;34.55;101335.09;5054955;28;1038;-46
2021/01/11 05:17:16;;;;;;;;;;;;;;;23.80;34.35;101326.25;5054098;28;1989;-47
2021/01/11 05:19:41;;;;;;;;;;;;;;;23.80;34.48;101323.59;5063701;28;1105;-47
2021/01/11 05:22:09;;;;;;;;;;;;;;;23.80;34.70;101328.94;5069640;28;1058;-48
2021/01/11 05:24:38;;;;;;;;;;;;;;;23.80;34.68;101323.59;5064092;28;1088;-50
2021/01/11 05:27:03;;;;;;;;;;;;;;;23.77;34.65;101316.75;5063383;28;1294;-49
2021/01/11 05:29:28;;;;;;;;;;;;;;;23.77;34.70;101315.94;5045776;28;1239;-50
2021/01/11 05:31:55;;;;;;;;;;;;;;;23.78;34.58;101317.59;5068750;28;1137;-47
2021/01/11 05:34:22;;;;;;;;;;;;;;;23.78;34.73;101322.97;5057449;28;1179;-51
2021/01/11 05:36:47;;;;;;;;;;;;;;;23.78;34.35;101320.28;5066328;28;1902;-49
2021/01/11 05:39:13;;;;;;;;;;;;;;;23.77;34.26;101321.31;5064350;28;1239;-49
2021/01/11 05:41:41;;;;;;;;;;;;;;;23.77;34.45;101327.47;5065527;28;1139;-48
2021/01/11 05:44:10;;;;;;;;;;;;;;;23.77;34.48;101321.31;5051085;28;1117;-48
2021/01/11 05:46:36;;;;;;;;;;;;;;;23.79;34.61;101316.56;5062488;28;1248;-48
2021/01/11 05:49:02;;;;;;;;;;;;;;;23.77;34.36;101318.63;5064876;28;1373;-51
2021/01/11 05:51:28;;;;;;;;;;;;;;;23.76;34.30;101304.41;5064304;28;1034;-51
2021/01/11 05:53:54;;;;;;;;;;;;;;;23.75;34.30;101300.06;5049893;28;1188;-50
2021/01/11 05:56:19;;;;;;;;;;;;;;;23.74;34.46;101297.59;5045343;28;1063;-48
2021/01/11 05:59:03;;;;;;;;;;;;;;;23.78;34.50;101291.63;5046749;28;1902;-47
2021/01/11 06:01:32;;;;;;;;;;;;;;;23.77;34.84;101298.03;5049980;28;1341;-48
2021/01/11 06:03:57;;;;;;;;;;;;;;;23.77;34.61;101291.84;5050040;28;1392;-51
2021/01/11 06:06:23;;;;;;;;;;;;;;;23.76;34.37;101295.56;5049449;28;1423;-47
2021/01/11 06:08:49;;;;;;;;;;;;;;;23.75;34.59;101309.97;5050475;28;2301;-47
2021/01/11 06:11:15;;;;;;;;;;;;;;;23.76;34.71;101315.09;5043935;28;2332;-50
2021/01/11 06:13:41;;;;;;;;;;;;;;;23.78;34.79;101312.25;5045993;28;1253;-47
2021/01/11 06:16:07;;;;;;;;;;;;;;;23.71;33.58;101312.19;5044575;28;1434;-52
2021/01/11 06:18:32;;;;;;;;;;;;;;;23.67;33.45;101310.94;5051939;28;1886;-47
2021/01/11 06:20:57;;;;;;;;;;;;;;;23.67;33.73;101317.13;5035244;28;2329;-47
2021/01/11 06:23:29;;;;;;;;;;;;;;;23.67;34.22;101325.16;5045405;28;1312;-49
2021/01/11 06:25:54;;;;;;;;;;;;;;;23.67;34.11;101333.19;5046689;28;1285;-47
2021/01/11 06:28:29;;;;;;;;;;;;;;;23.68;34.45;101334.84;5047502;28;1530;-48
2021/01/11 06:31:08;;;;;;;;;;;;;;;23.68;34.29;101318.78;5048317;28;1352;-47
2021/01/11 06:33:34;;;;;;;;;;;;;;;23.68;34.35;101321.44;5044100;28;2275;-47
2021/01/11 06:35:59;;;;;;;;;;;;;;;23.68;34.51;101313.44;5048595;28;1058;-46
2021/01/11 06:38:28;;;;;;;;;;;;;;;23.68;34.22;101321.44;5044747;28;2630;-47
2021/01/11 06:40:53;;;;;;;;;;;;;;;23.70;34.35;101329.28;5053561;28;1058;-49
2021/01/11 06:43:19;;;;;;;;;;;;;;;23.68;34.38;101324.13;5053293;28;1112;-49
2021/01/11 06:45:45;;;;;;;;;;;;;;;23.68;34.58;101324.13;5065028;28;1045;-49
2021/01/11 06:48:18;;;;;;;;;;;;;;;23.70;34.58;101324.75;5064908;28;1383;-49
2021/01/11 06:50:44;;;;;;;;;;;;;;;23.69;34.33;101324.94;5054494;28;924;-46
2021/01/11 06:53:10;;;;;;;;;;;;;;;23.68;34.39;101326.81;5065788;28;1112;-48
2021/01/11 06:55:35;;;;;;;;;;;;;;;23.68;34.51;101337.50;5063880;28;1069;-50
2021/01/11 06:58:01;;;;;;;;;;;;;;;23.69;34.76;101341.84;5064708;28;1902;-47
2021/01/11 07:00:37;;;;;;;;;;;;;;;23.69;34.74;101327.63;5064334;28;1046;-47
2021/01/11 07:03:03;;;;;;;;;;;;;;;23.69;34.46;101333.81;5065459;28;1041;-48
2021/01/11 07:05:35;;;;;;;;;;;;;;;23.67;34.67;101330.50;5063364;28;1171;-47
2021/01/11 07:08:04;;;;;;;;;;;;;;;23.68;34.73;101336.69;5064695;28;1282;-48
2021/01/11 07:10:29;;;;;;;;;;;;;;;23.68;34.61;101342.88;5063783;28;1108;-48
2021/01/11 07:13:13;;;;;;;;;;;;;;;23.69;34.65;101330.31;5064613;28;1074;-50
2021/01/11 07:15:38;;;;;;;;;;;;;;;23.69;34.61;101327.63;5057455;28;2281;-51
2021/01/11 07:18:05;;;;;;;;;;;;;;;23.69;34.73;101320.44;5039149;28;2419;-47
2021/01/11 07:20:41;;;;;;;;;;;;;;;23.73;34.47;101326.22;5050608;28;1093;-51
2021/01/11 07:23:07;;;;;;;;;;;;;;;23.78;34.66;101334.47;5047722;28;1304;-49
2021/01/11 07:25:32;;;;;;;;;;;;;;;23.95;34.79;101326.97;5050813;28;1469;-65
2021/01/11 07:27:59;;;;;;;;;;;;;;;24.35;34.35;101321.03;5066548;28;1469;-54
2021/01/11 07:32:49;;;;;;;;;;;;;;;24.34;34.25;101316.69;5126771;27;719566;-49
2021/01/11 07:35:14;;;;;;;;;;;;;;;24.23;34.25;101330.66;5127935;28;1385;-48
2021/01/11 07:37:39;;;;;;;;;;;;;;;24.13;34.53;101321.13;5128985;28;1281;-48
2021/01/11 07:40:08;;;;;;;;;;;;;;;24.10;34.49;101313.50;5124424;28;2332;-48
2021/01/11 07:42:33;;;;;;;;;;;;;;;24.11;34.53;101306.28;5122526;28;1954;-48
2021/01/11 07:45:04;;;;;;;;;;;;;;;24.10;34.47;101316.19;5128490;28;1335;-48
2021/01/11 07:47:30;;;;;;;;;;;;;;;24.11;34.75;101319.66;5128056;28;1536;-45
2021/01/11 07:49:55;;;;;;;;;;;;;;;24.10;34.85;101331.41;5129215;28;1525;-46
2021/01/11 07:52:26;;;;;;;;;;;;;;;24.11;34.57;101349.97;5129622;28;1465;-46
2021/01/11 07:54:59;;;;;;;;;;;;;;;24.12;34.87;101346.28;5123210;28;1041;-46
2021/01/11 07:57:27;;;;;;;;;;;;;;;24.15;34.78;101350.38;5122121;28;1654;-47
2021/01/11 08:00:10;;;;;;;;;;;;;;;24.17;34.90;101353.69;5115483;28;1227;-47
2021/01/11 08:02:35;;;;;;;;;;;;;;;24.22;34.95;101348.56;5117123;28;1898;-45
2021/01/11 08:05:01;;;;;;;;;;;;;;;24.26;34.63;101351.69;5120485;28;1180;-46
2021/01/11 08:07:30;;;;;;;;;;;;;;;24.27;34.60;101351.47;5113681;28;1291;-46
2021/01/11 08:09:56;;;;;;;;;;;;;;;24.29;34.73;101340.56;5117577;28;1468;-49
2021/01/11 08:12:21;;;;;;;;;;;;;;;24.29;34.50;101344.06;5128645;28;1227;-44
2021/01/11 08:14:47;;;;;;;;;;;;;;;24.33;34.76;101341.00;5127932;27;1413;-43
2021/01/11 08:17:20;;;;;;;;;;;;;;;24.32;35.05;101342.00;5120377;28;1386;-46
2021/01/11 08:19:48;;;;;;;;;;;;;;;24.33;34.70;101338.31;5117678;28;1066;-46
2021/01/11 08:22:16;;;;;;;;;;;;;;;24.34;35.02;101346.16;5118549;28;1893;-46
2021/01/11 08:24:41;;;;;;;;;;;;;;;24.38;34.62;101335.84;5116294;28;1210;-47
2021/01/11 08:27:07;;;;;;;;;;;;;;;24.39;34.82;101340.19;5115969;28;1326;-49
2021/01/11 08:29:34;;;;;;;;;;;;;;;24.39;34.73;101326.78;5126828;28;1243;-46
2021/01/11 08:32:00;;;;;;;;;;;;;;;24.39;34.89;101324.09;5128452;28;1464;-47
2021/01/11 08:34:26;;;;;;;;;;;;;;;24.42;34.80;101329.06;5118897;28;1416;-47
2021/01/11 08:36:51;;;;;;;;;;;;;;;24.45;34.73;101323.31;5129787;27;1095;-49
2021/01/11 08:39:17;;;;;;;;;;;;;;;24.47;34.91;101339.19;5121415;28;1527;-45
2021/01/11 08:41:53;;;;;;;;;;;;;;;24.49;34.67;101348.69;5125381;28;1901;-48
2021/01/11 08:44:25;;;;;;;;;;;;;;;24.53;34.38;101346.44;5100875;28;1108;-48
2021/01/11 08:46:51;;;;;;;;;;;;;;;24.53;34.51;101359.84;5103744;28;1010;-44
2021/01/11 08:49:16;;;;;;;;;;;;;;;24.52;34.44;101353.63;5099713;28;1287;-48
2021/01/11 08:51:41;;;;;;;;;;;;;;;24.54;34.68;101359.63;5109761;28;1258;-45
2021/01/11 08:54:06;;;;;;;;;;;;;;;24.53;34.43;101352.59;5106459;28;1111;-47
2021/01/11 08:56:35;;;;;;;;;;;;;;;24.55;34.63;101357.78;5099058;28;1184;-44
2021/01/11 08:59:01;;;;;;;;;;;;;;;24.54;34.84;101366.84;5104127;28;1546;-51
2021/01/11 09:01:26;;;;;;;;;;;;;;;24.56;35.25;101365.63;5105372;28;1894;-45
2021/01/11 09:03:55;;;;;;;;;;;;;;;24.58;34.79;101363.56;5104131;28;1432;-48
2021/01/11 09:06:39;;;;;;;;;;;;;;;24.58;34.78;101360.88;5101172;28;1163;-46
2021/01/11 09:09:05;;;;;;;;;;;;;;;24.59;34.66;101365.22;5113365;28;1209;-50
2021/01/11 09:11:30;;;;;;;;;;;;;;;24.65;35.06;101362.75;5112387;28;1175;-50
2021/01/11 09:14:10;;;;;;;;;;;;;;;24.63;34.86;101352.25;5114956;28;1088;-50
2021/01/11 09:16:36;;;;;;;;;;;;;;;24.65;34.90;101363.59;5105345;28;1143;-55
2021/01/11 09:19:07;;;;;;;;;;;;;;;24.66;34.51;101356.38;5105508;28;1279;-53
2021/01/11 09:21:32;;;;;;;;;;;;;;;24.67;34.64;101364.22;5106293;28;1898;-49
2021/01/11 09:23:58;;;;;;;;;;;;;;;24.69;34.52;101372.03;5089973;28;1073;-53
2021/01/11 09:26:23;;;;;;;;;;;;;;;24.68;34.69;101359.66;5106665;28;1212;-53
2021/01/11 09:28:48;;;;;;;;;;;;;;;24.70;34.73;101357.63;5102406;28;1581;-53
2021/01/11 09:31:13;;;;;;;;;;;;;;;24.71;34.69;101359.25;5109716;28;1318;-55
2021/01/11 09:33:38;;;;;;;;;;;;;;;24.71;34.79;101370.84;5110515;28;1212;-53
2021/01/11 09:36:04;;;;;;;;;;;;;;;24.72;35.10;101366.28;5111772;28;1287;-50
2021/01/11 09:38:29;;;;;;;;;;;;;;;24.75;35.05;101373.13;5109923;28;1386;-53
2021/01/11 09:40:54;;;;;;;;;;;;;;;24.71;34.98;101375.34;5108830;28;1977;-53
2021/01/11 09:43:19;;;;;;;;;;;;;;;24.73;34.72;101378.69;5111948;28;1398;-49
2021/01/11 09:45:44;;;;;;;;;;;;;;;24.74;34.93;101372.31;5090863;28;1455;-48
2021/01/11 09:48:10;;;;;;;;;;;;;;;24.76;34.60;101380.16;5109185;28;1398;-52
2021/01/11 09:50:37;;;;;;;;;;;;;;;24.75;34.88;101371.28;5106351;28;1469;-52
2021/01/11 09:53:02;;;;;;;;;;;;;;;24.81;34.83;101370.47;5107827;28;1310;-50
2021/01/11 09:55:27;;;;;;;;;;;;;;;24.80;34.77;101371.50;5109084;28;1525;-53
2021/01/11 09:57:53;;;;;;;;;;;;;;;24.81;34.47;101378.50;5113215;28;1359;-51
2021/01/11 10:00:18;;;;;;;;;;;;;;;24.86;34.75;101377.91;5106313;28;1410;-52
2021/01/11 10:02:47;;;;;;;;;;;;;;;24.87;34.78;101380.38;5101605;28;1894;-48
2021/01/11 10:05:12;;;;;;;;;;;;;;;24.88;34.80;101375.84;5091661;28;1065;-47
2021/01/11 10:07:38;;;;;;;;;;;;;;;24.88;34.81;101383.91;5087272;28;1390;-50
2021/01/11 10:10:03;;;;;;;;;;;;;;;24.88;34.80;101384.72;5098672;28;1069;-49
2021/01/11 10:12:29;;;;;;;;;;;;;;;24.90;34.60;101375.63;5104709;28;1523;-46
2021/01/11 10:14:54;;;;;;;;;;;;;;;24.88;35.06;101370.50;5102881;28;1345;-51
2021/01/11 10:17:19;;;;;;;;;;;;;;;24.82;34.85;101382.03;5104583;28;1295;-52
2021/01/11 10:19:44;;;;;;;;;;;;;;;24.86;34.80;101373.38;5101895;28;1286;-48
2021/01/11 10:22:10;;;;;;;;;;;;;;;24.90;33.73;101367.59;5102204;28;1897;-50
2021/01/11 10:24:35;;;;;;;;;;;;;;;24.88;34.41;101359.75;5103501;28;1186;-49
2021/01/11 10:27:00;;;;;;;;;;;;;;;24.88;34.10;101357.91;5098959;28;1038;-49
2021/01/11 10:29:25;;;;;;;;;;;;;;;24.90;34.61;101354.19;5108744;28;1299;-52
2021/01/11 10:31:51;;;;;;;;;;;;;;;24.92;34.41;101357.50;5098541;28;1202;-51
2021/01/11 10:34:17;;;;;;;;;;;;;;;24.93;34.52;101359.13;5101374;28;1189;-51
2021/01/11 10:36:54;;;;;;;;;;;;;;;24.96;34.73;101362.25;5104282;28;1296;-51
2021/01/11 10:39:23;;;;;;;;;;;;;;;24.97;34.37;101355.88;5109465;28;1486;-51
2021/01/11 10:41:49;;;;;;;;;;;;;;;24.99;34.31;101352.97;5108408;28;1902;-53
2021/01/11 10:44:14;;;;;;;;;;;;;;;25.04;35.49;101355.03;5100703;28;1422;-49
2021/01/11 10:46:39;;;;;;;;;;;;;;;25.04;34.41;101349.69;5103125;28;1205;-53
2021/01/11 10:49:04;;;;;;;;;;;;;;;25.06;34.73;101343.06;5105030;28;1560;-53
2021/01/11 10:51:33;;;;;;;;;;;;;;;25.07;34.25;101338.53;5104006;28;1213;-55
2021/01/11 10:53:58;;;;;;;;;;;;;;;25.09;34.40;101342.66;5101273;28;1033;-48
2021/01/11 10:56:24;;;;;;;;;;;;;;;25.08;34.33;101340.19;5102311;28;1456;-56
2021/01/11 10:58:49;;;;;;;;;;;;;;;25.07;34.65;101339.34;5101557;28;1338;-50
2021/01/11 11:01:15;;;;;;;;;;;;;;;25.06;34.31;101332.34;5095993;28;1961;-53
2021/01/11 11:03:40;;;;;;;;;;;;;;;25.09;34.54;101325.75;5106017;28;1140;-51
2021/01/11 11:06:06;;;;;;;;;;;;;;;25.06;34.24;101321.59;5080648;28;1423;-52
2021/01/11 11:08:32;;;;;;;;;;;;;;;25.08;34.57;101319.53;5096042;28;1350;-51
2021/01/11 11:10:57;;;;;;;;;;;;;;;25.09;34.46;101318.50;5106543;28;1416;-51
2021/01/11 11:13:22;;;;;;;;;;;;;;;25.11;34.57;101308.41;5095843;28;1042;-53
2021/01/11 11:15:47;;;;;;;;;;;;;;;25.14;34.01;101307.19;5101220;28;1149;-49
2021/01/11 11:18:13;;;;;;;;;;;;;;;25.17;34.14;101322.88;5099360;28;1373;-51
2021/01/11 11:20:39;;;;;;;;;;;;;;;25.13;33.56;101316.25;5105120;28;1953;-53
2021/01/11 11:23:05;;;;;;;;;;;;;;;25.07;34.27;101323.25;5106553;28;1905;-50
2021/01/11 11:25:30;;;;;;;;;;;;;;;25.02;34.00;101315.84;5109398;28;1127;-52
2021/01/11 11:27:55;;;;;;;;;;;;;;;25.04;34.24;101312.94;5113054;27;1398;-52
2021/01/11 11:30:20;;;;;;;;;;;;;;;25.01;30.79;101313.34;5108828;28;1418;-51
2021/01/11 11:32:46;;;;;;;;;;;;;;;24.92;29.53;101312.72;5107746;28;1482;-52
2021/01/11 11:35:12;;;;;;;;;;;;;;;24.88;29.87;101303.44;5104577;28;1175;-49
2021/01/11 11:37:37;;;;;;;;;;;;;;;24.88;30.25;101298.09;5100119;28;1323;-51
2021/01/11 11:40:03;;;;;;;;;;;;;;;24.88;30.65;101290.84;5116349;28;1326;-49
2021/01/11 11:42:34;;;;;;;;;;;;;;;24.86;30.62;101282.19;5110663;28;1894;-50
2021/01/11 11:45:00;;;;;;;;;;;;;;;24.85;30.66;101277.03;5108162;28;1271;-51
2021/01/11 11:47:25;;;;;;;;;;;;;;;24.84;30.80;101267.34;5111627;28;1584;-51
2021/01/11 11:49:50;;;;;;;;;;;;;;;24.82;30.80;101270.22;5105175;28;1357;-52
2021/01/11 11:52:15;;;;;;;;;;;;;;;24.82;31.12;101253.31;5109466;28;1460;-50
2021/01/11 11:54:41;;;;;;;;;;;;;;;24.78;31.32;101252.88;5111004;28;1182;-49
2021/01/11 11:57:06;;;;;;;;;;;;;;;24.78;31.34;101249.38;5110353;28;1434;-50
2021/01/11 11:59:31;;;;;;;;;;;;;;;24.77;31.89;101251.22;5109958;28;1417;-52
2021/01/11 12:01:56;;;;;;;;;;;;;;;24.79;31.62;101243.81;5110688;28;1955;-52
2021/01/11 12:04:21;;;;;;;;;;;;;;;24.79;31.84;101233.09;5110277;28;1457;-53
2021/01/11 12:06:46;;;;;;;;;;;;;;;24.77;32.10;101239.69;5107399;28;1156;-55
2021/01/11 12:09:12;;;;;;;;;;;;;;;24.76;32.35;101236.19;5109906;28;1519;-53
2021/01/11 12:11:41;;;;;;;;;;;;;;;24.77;31.27;101235.16;5111393;28;1096;-52
2021/01/11 12:14:06;;;;;;;;;;;;;;;24.73;31.50;101231.22;5111989;28;1206;-55
2021/01/11 12:16:31;;;;;;;;;;;;;;;24.71;31.24;101225.22;5110536;28;1128;-52
2021/01/11 12:18:57;;;;;;;;;;;;;;;24.72;31.53;101224.19;5109938;28;1411;-53
2021/01/11 12:21:28;;;;;;;;;;;;;;;24.68;31.43;101213.06;5114046;28;1902;-53
2021/01/11 12:23:53;;;;;;;;;;;;;;;24.65;31.51;101209.94;5111796;28;1351;-53
2021/01/11 12:26:19;;;;;;;;;;;;;;;24.65;31.57;101212.63;5113999;28;1464;-51
2021/01/11 12:28:44;;;;;;;;;;;;;;;24.63;30.90;101210.16;5113634;27;1350;-51
2021/01/11 12:31:09;;;;;;;;;;;;;;;24.62;29.91;101210.34;5106912;28;1116;-53
2021/01/11 12:33:34;;;;;;;;;;;;;;;24.61;31.07;101201.50;5108734;28;1174;-50
2021/01/11 12:35:59;;;;;;;;;;;;;;;24.57;29.72;101195.72;5110129;28;1088;-48
2021/01/11 12:38:24;;;;;;;;;;;;;;;24.55;30.80;101187.03;5101015;28;1300;-48
2021/01/11 12:40:50;;;;;;;;;;;;;;;24.55;31.12;101179.00;5104975;28;1973;-49
2021/01/11 12:43:15;;;;;;;;;;;;;;;24.57;31.49;101187.66;5111539;28;1263;-49
2021/01/11 12:45:40;;;;;;;;;;;;;;;24.57;31.59;101185.00;5104225;28;1477;-47
2021/01/11 12:48:05;;;;;;;;;;;;;;;24.58;32.21;101161.69;5099632;28;1282;-50